Time;durP1;ratioP1;P1;durP2;ratioP2;P2;SDS_P1;SDS_P2;PMS_P1;PMS_P2;Temp;Humidity;BMP_temperature;BMP_pressure;BME280_temperature;BME280_humidity;BME280_pressure;Samples;Min_cycle;Max_cycle;Signal;HPM_P1;HPM_P2
2022/01/02 00:01:22;;;;;;;3.58;1.98;;;11.30;46.50;;;;;;5096969;28;20243;-49
2022/01/02 00:03:55;;;;;;;6.88;2.35;;;11.20;46.50;;;;;;5096773;28;20177;-49
2022/01/02 00:06:29;;;;;;;3.97;1.83;;;11.20;46.30;;;;;;5096718;28;20160;-49
2022/01/02 00:09:06;;;;;;;2.78;2.15;;;11.10;46.40;;;;;;5096874;28;20184;-49
2022/01/02 00:11:37;;;;;;;4.05;2.65;;;11.10;46.60;;;;;;5080706;28;20225;-50
2022/01/02 00:14:07;;;;;;;4.05;2.03;;;11.10;46.70;;;;;;5096660;28;20260;-48
2022/01/02 00:16:37;;;;;;;4.25;2.08;;;11.10;47.40;;;;;;5097369;28;20148;-49
2022/01/02 00:19:27;;;;;;;3.80;2.00;;;11.20;46.60;;;;;;5096666;28;20164;-49
2022/01/02 00:22:00;;;;;;;3.08;1.42;;;11.20;46.70;;;;;;5096264;28;20164;-48
2022/01/02 00:24:31;;;;;;;6.43;2.38;;;11.20;47.10;;;;;;5080453;28;20152;-49
2022/01/02 00:26:59;;;;;;;4.38;2.58;;;11.20;47.30;;;;;;5097371;28;20249;-49
2022/01/02 00:29:27;;;;;;;7.07;2.83;;;11.20;47.30;;;;;;5097249;28;20196;-50
2022/01/02 00:31:55;;;;;;;5.18;3.20;;;11.30;47.70;;;;;;5079827;28;20182;-48
2022/01/02 00:34:23;;;;;;;4.93;1.88;;;11.30;47.10;;;;;;5096295;28;20175;-49
2022/01/02 00:36:51;;;;;;;7.60;2.50;;;11.30;47.10;;;;;;5096491;28;20156;-48
2022/01/02 00:39:19;;;;;;;8.90;2.50;;;11.30;47.10;;;;;;5096980;28;20167;-49
2022/01/02 00:41:54;;;;;;;4.18;2.47;;;11.30;47.20;;;;;;5096932;28;20247;-49
2022/01/02 00:44:45;;;;;;;4.18;2.33;;;11.40;47.10;;;;;;5095581;28;20303;-48
2022/01/02 00:47:37;;;;;;;4.10;2.50;;;11.40;46.90;;;;;;5096881;28;20176;-49
2022/01/02 00:50:11;;;;;;;2.97;1.60;;;11.30;47.50;;;;;;5095722;28;20219;-49
2022/01/02 00:52:44;;;;;;;4.90;2.70;;;11.30;46.80;;;;;;5079996;28;20163;-49
2022/01/02 00:55:14;;;;;;;5.35;1.65;;;11.30;46.70;;;;;;5096662;28;20205;-48
2022/01/02 00:57:43;;;;;;;5.53;2.60;;;11.30;46.70;;;;;;5095709;28;20180;-49
2022/01/02 01:00:18;;;;;;;2.90;2.30;;;11.30;46.70;;;;;;5095702;28;20213;-49
2022/01/02 01:02:48;;;;;;;4.13;2.30;;;11.20;46.60;;;;;;5096691;28;20600;-49
2022/01/02 01:05:29;;;;;;;4.93;2.38;;;11.20;46.70;;;;;;5079338;28;20597;-49
2022/01/02 01:08:02;;;;;;;3.55;1.55;;;11.20;46.70;;;;;;5096426;28;20236;-49
2022/01/02 01:10:32;;;;;;;3.10;2.28;;;11.10;46.80;;;;;;5095717;28;20168;-49
2022/01/02 01:13:03;;;;;;;2.92;1.83;;;11.00;46.90;;;;;;5095610;28;20206;-49
2022/01/02 01:15:32;;;;;;;3.75;2.35;;;10.90;46.80;;;;;;5096165;28;20167;-48
2022/01/02 01:18:01;;;;;;;3.55;2.47;;;10.90;46.90;;;;;;5079081;28;20224;-48
2022/01/02 01:20:31;;;;;;;7.93;2.92;;;10.90;46.80;;;;;;5078898;28;20288;-49
2022/01/02 01:22:58;;;;;;;3.47;1.88;;;10.80;46.80;;;;;;5096091;28;20160;-49
2022/01/02 01:25:26;;;;;;;3.28;2.63;;;10.80;46.70;;;;;;5096133;28;20213;-48
2022/01/02 01:27:54;;;;;;;5.63;1.33;;;10.80;47.00;;;;;;5078385;28;20206;-50
2022/01/02 01:30:25;;;;;;;4.95;2.35;;;10.70;47.50;;;;;;5096180;28;20251;-49
2022/01/02 01:32:54;;;;;;;1.92;1.52;;;10.70;47.60;;;;;;5095424;28;20164;-49
2022/01/02 01:35:23;;;;;;;2.25;1.65;;;10.70;47.50;;;;;;5078778;28;20235;-48
2022/01/02 01:37:50;;;;;;;2.05;1.50;;;10.70;47.30;;;;;;5095931;28;20160;-49
2022/01/02 01:40:19;;;;;;;4.82;2.97;;;10.70;47.00;;;;;;5095201;28;20160;-49
2022/01/02 01:43:01;;;;;;;2.80;1.52;;;10.70;47.00;;;;;;5094837;28;20172;-49
2022/01/02 01:45:29;;;;;;;2.38;2.17;;;10.70;46.80;;;;;;5094846;28;20179;-49
2022/01/02 01:48:02;;;;;;;5.78;1.88;;;10.60;46.90;;;;;;5095588;28;20604;-49
2022/01/02 01:50:33;;;;;;;3.78;1.85;;;10.60;46.90;;;;;;5094309;28;20164;-49
2022/01/02 01:53:02;;;;;;;4.00;1.83;;;10.50;46.90;;;;;;5094786;28;20163;-49
2022/01/02 01:55:29;;;;;;;7.13;1.88;;;10.60;46.80;;;;;;5077740;28;20175;-50
2022/01/02 01:57:56;;;;;;;5.00;2.30;;;10.50;47.20;;;;;;5095509;28;20163;-49
2022/01/02 02:00:29;;;;;;;3.05;1.95;;;10.50;47.40;;;;;;5094693;28;20165;-49
2022/01/02 02:02:57;;;;;;;2.65;1.38;;;10.50;47.30;;;;;;5093447;28;20184;-48
2022/01/02 02:05:25;;;;;;;3.72;2.15;;;10.40;47.60;;;;;;5095380;28;20631;-48
2022/01/02 02:07:52;;;;;;;2.08;1.13;;;10.40;47.40;;;;;;5095202;28;20164;-48
2022/01/02 02:10:26;;;;;;;2.00;1.73;;;10.30;47.70;;;;;;5094444;28;20226;-49
2022/01/02 02:12:56;;;;;;;3.75;1.75;;;10.30;47.60;;;;;;5095320;28;20175;-48
2022/01/02 02:15:25;;;;;;;1.75;1.23;;;10.30;47.60;;;;;;5095384;28;20199;-50
2022/01/02 02:17:53;;;;;;;3.38;1.80;;;10.30;47.60;;;;;;5095366;28;20220;-48
2022/01/02 02:20:27;;;;;;;1.52;0.90;;;10.20;47.60;;;;;;5094240;28;20179;-49
2022/01/02 02:22:56;;;;;;;2.42;1.45;;;10.20;48.20;;;;;;5095211;28;20160;-49
2022/01/02 02:25:26;;;;;;;2.92;1.80;;;10.30;47.70;;;;;;5095155;28;20530;-48
2022/01/02 02:27:59;;;;;;;2.58;1.80;;;10.30;47.50;;;;;;5094163;28;20168;-48
2022/01/02 02:30:30;;;;;;;3.30;1.95;;;10.30;47.40;;;;;;5095036;28;20243;-48
2022/01/02 02:32:59;;;;;;;3.30;1.73;;;10.30;47.60;;;;;;5094344;28;20232;-48
2022/01/02 02:35:30;;;;;;;3.67;2.03;;;10.30;47.50;;;;;;5095034;28;20198;-49
2022/01/02 02:37:57;;;;;;;2.30;1.52;;;10.30;47.80;;;;;;5094948;28;20176;-50
2022/01/02 02:40:27;;;;;;;5.85;1.88;;;10.30;47.50;;;;;;5094922;28;20179;-48
2022/01/02 02:43:03;;;;;;;3.80;1.65;;;10.30;47.50;;;;;;5094035;28;20171;-48
2022/01/02 02:51:07;;;;;;;5.47;1.77;;;10.10;47.90;;;;;;5080365;28;20171;-49
2022/01/02 02:53:38;;;;;;;4.25;2.00;;;10.10;48.00;;;;;;5094194;28;20164;-49
2022/01/02 02:56:23;;;;;;;4.80;2.08;;;10.10;48.00;;;;;;5094080;28;20164;-48
2022/01/02 02:58:55;;;;;;;3.63;2.13;;;10.10;48.10;;;;;;5093850;28;20220;-49
2022/01/02 03:01:26;;;;;;;2.10;1.70;;;10.20;47.80;;;;;;5077858;28;20660;-48
2022/01/02 03:03:53;;;;;;;3.55;1.33;;;10.20;47.80;;;;;;5097194;28;20168;-50
2022/01/02 03:06:22;;;;;;;3.53;1.73;;;10.30;48.00;;;;;;5081680;28;20171;-50
2022/01/02 03:08:50;;;;;;;3.80;2.10;;;10.30;48.00;;;;;;5097810;28;20184;-49
2022/01/02 03:11:20;;;;;;;2.97;1.50;;;10.30;48.10;;;;;;5097769;28;20604;-48
2022/01/02 03:13:50;;;;;;;2.80;1.35;;;10.30;48.40;;;;;;5097763;28;20168;-50
2022/01/02 03:16:18;;;;;;;2.70;1.15;;;10.30;48.40;;;;;;5097885;28;20174;-49
2022/01/02 03:18:46;;;;;;;2.60;1.45;;;10.30;48.20;;;;;;5098741;28;20167;-49
2022/01/02 03:21:14;;;;;;;1.98;1.42;;;10.30;48.10;;;;;;5098716;28;20168;-49
2022/01/02 03:23:42;;;;;;;3.63;2.30;;;10.40;47.90;;;;;;5098521;28;20636;-49
2022/01/02 03:26:10;;;;;;;3.05;1.95;;;10.40;47.80;;;;;;5097598;28;20232;-47
2022/01/02 03:28:37;;;;;;;4.07;1.58;;;10.40;47.80;;;;;;5097656;28;20207;-50
2022/01/02 03:31:05;;;;;;;1.95;1.25;;;10.40;48.00;;;;;;5098780;28;20160;-49
2022/01/02 03:33:32;;;;;;;2.20;1.95;;;10.40;47.90;;;;;;5098488;28;20239;-50
2022/01/02 03:36:00;;;;;;;3.30;1.15;;;10.30;47.90;;;;;;5098234;28;20229;-50
2022/01/02 03:38:28;;;;;;;8.57;3.13;;;10.30;47.90;;;;;;5098235;28;20167;-50
2022/01/02 03:40:55;;;;;;;2.78;1.77;;;10.20;47.70;;;;;;5098437;28;20648;-50
2022/01/02 03:43:23;;;;;;;4.20;1.90;;;10.20;47.70;;;;;;5097127;28;20581;-49
2022/01/02 03:45:51;;;;;;;4.18;3.65;;;10.20;47.70;;;;;;5097697;28;20167;-50
2022/01/02 03:48:18;;;;;;;5.40;2.25;;;10.10;47.70;;;;;;5080299;28;20274;-49
2022/01/02 03:50:46;;;;;;;2.10;1.60;;;10.10;47.60;;;;;;5080455;28;20585;-49
2022/01/02 03:53:13;;;;;;;2.10;1.50;;;10.10;47.70;;;;;;5097892;28;20251;-49
2022/01/02 03:55:41;;;;;;;1.73;1.00;;;10.00;47.80;;;;;;5097243;28;20214;-49
2022/01/02 03:58:08;;;;;;;1.50;1.27;;;9.90;47.80;;;;;;5097975;28;20160;-49
2022/01/02 04:00:36;;;;;;;2.80;1.13;;;9.90;47.90;;;;;;5097806;28;20171;-49
2022/01/02 04:03:03;;;;;;;3.22;1.48;;;9.90;48.00;;;;;;5097619;28;20587;-49
2022/01/02 04:05:31;;;;;;;2.25;1.23;;;9.90;48.00;;;;;;5096706;28;20167;-49
2022/01/02 04:07:58;;;;;;;3.75;1.55;;;9.90;47.80;;;;;;5097599;28;20160;-48
2022/01/02 04:10:26;;;;;;;2.97;1.38;;;9.90;47.70;;;;;;5097545;28;20608;-48
2022/01/02 04:12:53;;;;;;;1.70;1.25;;;9.80;47.60;;;;;;5097327;28;20493;-48
2022/01/02 04:15:20;;;;;;;2.95;1.27;;;9.80;47.80;;;;;;5096400;28;20171;-49
2022/01/02 04:17:47;;;;;;;4.30;1.85;;;9.70;47.70;;;;;;5097737;28;20270;-48
2022/01/02 04:20:16;;;;;;;1.92;1.30;;;9.70;47.80;;;;;;5097436;28;20167;-48
2022/01/02 04:22:44;;;;;;;2.85;1.52;;;9.80;47.90;;;;;;5097317;28;20170;-49
2022/01/02 04:25:13;;;;;;;2.85;1.95;;;9.80;47.70;;;;;;5097265;28;20297;-49
2022/01/02 04:27:40;;;;;;;1.20;0.75;;;9.60;47.90;;;;;;5096383;28;20194;-48
2022/01/02 04:30:11;;;;;;;2.05;1.08;;;9.60;47.80;;;;;;5096416;28;20555;-49
2022/01/02 04:32:38;;;;;;;2.35;1.40;;;9.60;48.00;;;;;;5096270;28;20165;-48
2022/01/02 04:35:07;;;;;;;3.38;1.90;;;9.60;48.00;;;;;;5096041;28;20168;-49
2022/01/02 04:37:34;;;;;;;3.45;1.33;;;9.50;48.10;;;;;;5097060;28;20264;-48
2022/01/02 04:40:02;;;;;;;2.30;1.63;;;9.50;48.10;;;;;;5096321;28;20242;-48
2022/01/02 04:42:29;;;;;;;3.42;2.00;;;9.50;48.00;;;;;;5096021;28;20172;-49
2022/01/02 04:44:56;;;;;;;5.97;1.98;;;9.50;48.00;;;;;;5078855;28;20228;-48
2022/01/02 04:47:24;;;;;;;2.72;1.30;;;9.50;47.90;;;;;;5097048;28;20179;-48
2022/01/02 04:49:52;;;;;;;2.60;1.45;;;9.50;47.80;;;;;;5079364;28;20190;-47
2022/01/02 04:52:19;;;;;;;3.60;1.80;;;9.50;47.80;;;;;;5097070;28;20198;-47
2022/01/02 04:54:47;;;;;;;3.80;2.25;;;9.50;47.70;;;;;;5095817;28;20186;-48
2022/01/02 04:57:14;;;;;;;3.70;1.90;;;9.50;47.60;;;;;;5095843;28;20172;-48
2022/01/02 04:59:41;;;;;;;2.10;1.50;;;9.50;47.50;;;;;;5096652;28;20156;-48
2022/01/02 05:02:09;;;;;;;2.20;1.40;;;9.40;47.50;;;;;;5096923;28;20656;-48
2022/01/02 05:04:36;;;;;;;2.45;1.75;;;9.40;47.50;;;;;;5095664;28;20220;-48
2022/01/02 05:07:05;;;;;;;2.25;0.90;;;9.40;47.60;;;;;;5095646;28;20179;-49
2022/01/02 05:09:32;;;;;;;1.80;1.33;;;9.40;47.60;;;;;;5096478;28;20289;-48
2022/01/02 05:12:00;;;;;;;2.75;1.70;;;9.40;47.60;;;;;;5096552;28;20474;-48
2022/01/02 05:14:27;;;;;;;1.95;1.05;;;9.40;47.60;;;;;;5079016;28;20187;-48
2022/01/02 05:16:55;;;;;;;4.50;2.50;;;9.40;47.90;;;;;;5096402;28;20247;-48
2022/01/02 05:19:22;;;;;;;2.28;1.70;;;9.50;48.90;;;;;;5096336;28;20168;-48
2022/01/02 05:21:50;;;;;;;3.30;1.40;;;9.50;48.40;;;;;;5096268;28;20596;-48
2022/01/02 05:24:17;;;;;;;2.65;1.92;;;9.60;48.50;;;;;;5096058;28;20501;-49
2022/01/02 05:26:45;;;;;;;3.85;2.03;;;9.60;48.50;;;;;;5077660;28;20179;-48
2022/01/02 05:29:13;;;;;;;3.78;1.63;;;9.60;48.40;;;;;;5096059;28;20198;-48
2022/01/02 05:31:40;;;;;;;2.22;1.48;;;9.60;49.20;;;;;;5096153;28;20175;-48
2022/01/02 05:34:08;;;;;;;3.75;1.30;;;9.70;49.90;;;;;;5061874;28;20259;-48
2022/01/02 05:36:35;;;;;;;2.80;1.08;;;9.80;49.50;;;;;;5095914;28;20177;-48
2022/01/02 05:39:03;;;;;;;3.05;1.58;;;9.80;49.50;;;;;;5095163;28;20194;-48
2022/01/02 05:41:33;;;;;;;2.58;1.73;;;9.80;49.80;;;;;;5095837;28;20172;-48
2022/01/02 05:44:00;;;;;;;3.22;1.35;;;9.90;50.40;;;;;;5095528;28;20237;-48
2022/01/02 05:46:27;;;;;;;3.95;1.63;;;10.00;49.80;;;;;;5094945;28;20243;-48
2022/01/02 05:48:55;;;;;;;2.10;1.55;;;10.00;49.70;;;;;;5094930;28;20184;-48
2022/01/02 05:51:22;;;;;;;2.38;1.77;;;10.00;49.30;;;;;;5095030;28;20172;-48
2022/01/02 05:53:50;;;;;;;3.30;1.55;;;10.10;49.50;;;;;;5095551;28;20160;-48
2022/01/02 05:56:18;;;;;;;3.38;1.95;;;10.10;49.40;;;;;;5095534;28;20221;-48
2022/01/02 05:58:45;;;;;;;3.38;1.83;;;10.10;49.50;;;;;;5095830;28;20188;-48
2022/01/02 06:01:12;;;;;;;3.70;1.70;;;10.20;49.90;;;;;;5095619;28;20167;-48
2022/01/02 06:03:40;;;;;;;2.25;1.23;;;10.20;50.00;;;;;;5095608;28;20193;-48
2022/01/02 06:06:07;;;;;;;2.53;1.35;;;10.20;49.90;;;;;;5096116;28;20492;-48
2022/01/02 06:08:35;;;;;;;2.28;1.08;;;10.30;49.80;;;;;;5094424;28;20207;-49
2022/01/02 06:11:02;;;;;;;2.80;1.35;;;10.30;49.70;;;;;;5095524;28;20620;-50
2022/01/02 06:13:30;;;;;;;1.67;0.90;;;10.30;49.90;;;;;;5094538;28;20156;-48
2022/01/02 06:15:57;;;;;;;2.20;1.02;;;10.30;49.40;;;;;;5095247;28;20183;-48
2022/01/02 06:18:25;;;;;;;3.47;1.42;;;10.30;49.40;;;;;;5077649;28;20309;-49
2022/01/02 06:20:53;;;;;;;2.58;1.55;;;10.30;49.50;;;;;;5094477;28;20175;-48
2022/01/02 06:23:21;;;;;;;2.40;1.50;;;10.30;49.40;;;;;;5095205;28;20164;-49
2022/01/02 06:25:48;;;;;;;2.30;1.40;;;10.30;49.40;;;;;;5095260;28;20604;-48
2022/01/02 06:28:16;;;;;;;1.58;1.25;;;10.30;49.30;;;;;;5095020;28;20206;-48
2022/01/02 06:30:44;;;;;;;4.78;1.92;;;10.30;49.40;;;;;;5094965;28;20171;-48
2022/01/02 06:33:11;;;;;;;1.95;1.13;;;10.30;49.40;;;;;;5095067;28;20198;-48
2022/01/02 06:35:38;;;;;;;3.95;2.13;;;10.30;49.20;;;;;;5095167;28;20597;-49
2022/01/02 06:38:17;;;;;;;1.80;0.80;;;10.30;49.40;;;;;;5094739;28;20534;-49
2022/01/02 06:40:45;;;;;;;3.20;1.63;;;10.30;49.10;;;;;;5094516;28;20164;-49
2022/01/02 06:43:16;;;;;;;2.80;1.75;;;10.20;49.10;;;;;;5094601;28;20200;-48
2022/01/02 06:45:45;;;;;;;2.45;1.55;;;10.20;49.10;;;;;;5094124;28;20159;-49
2022/01/02 06:48:12;;;;;;;4.03;1.33;;;10.20;49.10;;;;;;5077551;28;20192;-50
2022/01/02 06:50:40;;;;;;;1.83;1.20;;;10.20;48.90;;;;;;5093844;28;20613;-48
2022/01/02 06:53:07;;;;;;;2.40;1.58;;;10.20;49.10;;;;;;5094028;28;20338;-49
2022/01/02 06:55:35;;;;;;;1.65;1.00;;;10.20;48.90;;;;;;5094782;28;20537;-49
2022/01/02 06:58:02;;;;;;;1.75;1.08;;;10.20;48.90;;;;;;5093719;28;20513;-49
2022/01/02 07:00:30;;;;;;;2.33;1.15;;;10.10;49.30;;;;;;5094934;28;20666;-49
2022/01/02 07:02:57;;;;;;;1.85;0.82;;;10.10;49.10;;;;;;5094973;28;20168;-47
2022/01/02 07:05:25;;;;;;;1.95;0.98;;;10.10;49.10;;;;;;5093650;28;20164;-48
2022/01/02 07:07:52;;;;;;;3.30;1.33;;;10.10;49.10;;;;;;5094661;28;20179;-49
2022/01/02 07:10:20;;;;;;;4.13;1.98;;;10.10;49.10;;;;;;5094718;28;20198;-48
2022/01/02 07:12:47;;;;;;;1.77;1.17;;;10.00;49.00;;;;;;5094561;28;20571;-48
2022/01/02 07:15:16;;;;;;;3.90;1.85;;;10.00;49.20;;;;;;5094760;28;20170;-48
2022/01/02 07:17:43;;;;;;;2.88;1.52;;;10.10;49.40;;;;;;5093762;28;20171;-47
2022/01/02 07:20:14;;;;;;;3.88;1.60;;;10.00;49.20;;;;;;5094578;28;20237;-48
2022/01/02 07:22:42;;;;;;;2.17;1.05;;;10.00;49.30;;;;;;5094791;28;20164;-48
2022/01/02 07:25:10;;;;;;;4.13;2.58;;;10.00;49.30;;;;;;5093785;28;20244;-48
2022/01/02 07:27:38;;;;;;;2.90;1.63;;;10.00;49.30;;;;;;5093628;28;20675;-48
2022/01/02 07:30:07;;;;;;;3.17;2.60;;;9.90;49.20;;;;;;5094375;28;20295;-48
2022/01/02 07:32:35;;;;;;;1.90;1.42;;;9.90;49.20;;;;;;5094512;28;20156;-48
2022/01/02 07:35:06;;;;;;;1.92;1.60;;;9.90;49.20;;;;;;5093545;28;20167;-48
2022/01/02 07:37:35;;;;;;;2.53;1.83;;;9.80;49.30;;;;;;5093585;28;20149;-48
2022/01/02 07:40:03;;;;;;;5.00;2.55;;;9.80;49.20;;;;;;5094351;28;20171;-48
2022/01/02 07:42:31;;;;;;;5.50;2.15;;;9.80;49.20;;;;;;5093650;28;20168;-48
2022/01/02 07:44:59;;;;;;;2.00;1.27;;;9.80;49.20;;;;;;5094063;28;20536;-49
2022/01/02 07:47:26;;;;;;;4.10;2.03;;;9.90;49.60;;;;;;5094684;28;20171;-48
2022/01/02 07:49:54;;;;;;;4.35;2.58;;;9.90;50.00;;;;;;5097440;28;20199;-48
2022/01/02 07:52:22;;;;;;;2.13;1.52;;;10.00;49.80;;;;;;5097011;28;20297;-48
2022/01/02 07:54:49;;;;;;;1.95;1.75;;;10.00;49.90;;;;;;5098063;28;20601;-48
2022/01/02 07:57:19;;;;;;;2.15;1.40;;;10.10;49.80;;;;;;5097808;28;20264;-49
2022/01/02 07:59:47;;;;;;;5.55;2.75;;;10.20;49.80;;;;;;5080493;28;20222;-48
2022/01/02 08:02:15;;;;;;;2.63;1.58;;;10.30;49.80;;;;;;5097716;28;20194;-48
2022/01/02 08:04:42;;;;;;;3.58;2.08;;;10.40;50.40;;;;;;5080179;28;20168;-49
2022/01/02 08:07:10;;;;;;;1.80;1.55;;;10.40;49.60;;;;;;5097656;28;20175;-49
2022/01/02 08:09:37;;;;;;;3.40;1.55;;;10.50;49.80;;;;;;5097409;28;20191;-49
2022/01/02 08:12:05;;;;;;;1.65;0.95;;;10.50;49.70;;;;;;5096532;28;20164;-49
2022/01/02 08:14:32;;;;;;;4.43;1.70;;;10.60;49.80;;;;;;5097825;28;20171;-50
2022/01/02 08:16:59;;;;;;;2.05;1.48;;;10.70;49.90;;;;;;5096688;28;20171;-49
2022/01/02 08:19:27;;;;;;;3.30;1.55;;;10.90;50.00;;;;;;5097513;28;20174;-49
2022/01/02 08:21:54;;;;;;;6.50;2.58;;;11.00;49.80;;;;;;5096728;28;20188;-49
2022/01/02 08:24:22;;;;;;;3.85;1.70;;;11.00;50.30;;;;;;5096247;28;20209;-49
2022/01/02 08:26:49;;;;;;;2.80;1.25;;;11.20;50.10;;;;;;5096704;28;20616;-49
2022/01/02 08:29:17;;;;;;;2.13;1.45;;;11.20;50.70;;;;;;5079591;28;20238;-49
2022/01/02 08:31:45;;;;;;;2.45;1.38;;;11.30;51.10;;;;;;5097310;28;20243;-49
2022/01/02 08:34:13;;;;;;;4.75;1.92;;;11.40;51.30;;;;;;5097289;28;20160;-49
2022/01/02 08:36:40;;;;;;;2.03;1.45;;;11.50;50.80;;;;;;5097279;28;20228;-49
2022/01/02 08:39:07;;;;;;;1.98;0.90;;;11.70;51.10;;;;;;5096204;28;20577;-49
2022/01/02 08:41:35;;;;;;;2.78;1.33;;;11.80;50.90;;;;;;5097017;28;20164;-48
2022/01/02 08:44:03;;;;;;;2.33;1.92;;;12.00;50.80;;;;;;5095773;28;20227;-49
2022/01/02 08:46:33;;;;;;;3.05;2.40;;;12.10;50.60;;;;;;5096908;28;20207;-48
2022/01/02 08:49:00;;;;;;;2.22;1.35;;;12.30;50.50;;;;;;5096966;28;20667;-48
2022/01/02 08:51:29;;;;;;;4.10;2.15;;;12.50;50.50;;;;;;5095842;28;20616;-49
2022/01/02 08:53:57;;;;;;;2.67;1.20;;;12.60;50.10;;;;;;5096990;28;20171;-50
2022/01/02 08:56:24;;;;;;;4.03;1.95;;;12.70;50.00;;;;;;5095860;28;20187;-48
2022/01/02 08:58:52;;;;;;;3.00;1.80;;;12.80;49.90;;;;;;5095912;28;20470;-48
2022/01/02 09:01:19;;;;;;;4.65;2.55;;;12.90;49.90;;;;;;5096564;28;20168;-49
2022/01/02 09:03:48;;;;;;;2.90;1.48;;;12.90;49.80;;;;;;5096771;28;20593;-49
2022/01/02 09:06:16;;;;;;;4.50;3.25;;;13.00;49.70;;;;;;5096395;28;20168;-49
2022/01/02 09:08:43;;;;;;;3.50;2.00;;;13.00;49.60;;;;;;5096392;28;20274;-48
2022/01/02 09:11:11;;;;;;;4.55;2.05;;;13.00;49.50;;;;;;5095692;28;20163;-48
2022/01/02 09:13:38;;;;;;;4.10;2.10;;;13.10;49.30;;;;;;5095739;28;20250;-49
2022/01/02 09:16:07;;;;;;;6.25;2.78;;;13.10;49.40;;;;;;5096505;28;20156;-49
2022/01/02 09:18:35;;;;;;;4.47;2.25;;;13.10;49.50;;;;;;5095549;28;20171;-49
2022/01/02 09:21:02;;;;;;;4.97;2.80;;;13.10;49.40;;;;;;5096175;28;20164;-49
2022/01/02 09:23:29;;;;;;;4.57;2.00;;;13.10;49.40;;;;;;5095461;28;20172;-49
2022/01/02 09:25:57;;;;;;;2.90;2.10;;;13.10;49.30;;;;;;5096464;28;20164;-49
2022/01/02 09:28:25;;;;;;;2.60;2.13;;;13.20;49.40;;;;;;5078454;28;20263;-49
2022/01/02 09:30:52;;;;;;;3.47;1.75;;;13.20;49.40;;;;;;5096057;28;20168;-49
2022/01/02 09:33:20;;;;;;;4.07;2.65;;;13.20;49.30;;;;;;5095859;28;20190;-48
2022/01/02 09:35:48;;;;;;;3.40;2.50;;;13.30;49.40;;;;;;5095081;28;20167;-49
2022/01/02 09:38:16;;;;;;;5.35;2.10;;;13.30;49.30;;;;;;5095839;28;20156;-49
2022/01/02 09:40:43;;;;;;;3.38;2.05;;;13.40;49.30;;;;;;5096076;28;20218;-49
2022/01/02 09:43:11;;;;;;;3.65;1.60;;;13.40;49.30;;;;;;5078331;28;20156;-48
2022/01/02 09:45:41;;;;;;;5.35;3.10;;;13.40;49.10;;;;;;5095768;28;20179;-49
2022/01/02 09:48:09;;;;;;;2.78;1.40;;;13.50;49.10;;;;;;5095520;28;20235;-48
2022/01/02 09:50:38;;;;;;;4.65;2.97;;;13.50;49.00;;;;;;5094883;28;20168;-49
2022/01/02 09:53:06;;;;;;;3.65;1.52;;;13.60;49.00;;;;;;5095628;28;20172;-48
2022/01/02 09:55:33;;;;;;;4.90;2.53;;;13.70;48.50;;;;;;5094658;28;20589;-48
2022/01/02 09:58:04;;;;;;;4.43;1.98;;;13.70;48.50;;;;;;5078048;28;20193;-48
2022/01/02 10:00:31;;;;;;;6.65;2.75;;;13.70;48.60;;;;;;5095580;28;20176;-48
2022/01/02 10:03:02;;;;;;;3.78;3.10;;;13.80;48.50;;;;;;5095420;28;20156;-48
2022/01/02 10:05:48;;;;;;;3.97;2.90;;;13.80;48.50;;;;;;5094594;28;20224;-49
2022/01/02 10:08:27;;;;;;;12.90;2.78;;;13.90;48.70;;;;;;5094542;28;20234;-49
2022/01/02 10:11:24;;;;;;;7.43;2.67;;;13.90;48.50;;;;;;5094327;28;20160;-49
2022/01/02 10:14:06;;;;;;;4.15;2.85;;;14.00;48.60;;;;;;5094327;28;20168;-49
2022/01/02 10:16:43;;;;;;;4.90;2.13;;;14.00;48.40;;;;;;5078832;28;20482;-50
2022/01/02 10:19:36;;;;;;;5.97;2.40;;;14.00;48.30;;;;;;5078463;28;20160;-49
2022/01/02 10:22:06;;;;;;;4.40;2.30;;;14.00;48.30;;;;;;5095073;28;20160;-49
2022/01/02 10:24:47;;;;;;;2.67;1.60;;;14.10;48.20;;;;;;5094204;28;20168;-49
2022/01/02 10:27:21;;;;;;;5.32;2.78;;;14.10;48.20;;;;;;5078523;28;20168;-50
2022/01/02 10:29:54;;;;;;;3.83;2.50;;;14.10;48.30;;;;;;5094224;28;20498;-49
2022/01/02 10:32:35;;;;;;;5.55;2.83;;;14.20;48.20;;;;;;5094918;28;20237;-49
2022/01/02 10:35:24;;;;;;;5.40;2.95;;;14.20;48.20;;;;;;5094953;28;20600;-49
2022/01/02 10:37:56;;;;;;;4.97;2.65;;;14.30;48.20;;;;;;5094928;28;20191;-49
2022/01/02 10:40:39;;;;;;;5.75;3.03;;;14.30;48.10;;;;;;5078241;28;20156;-49
2022/01/02 10:43:12;;;;;;;4.30;2.15;;;14.40;48.00;;;;;;5062400;28;20209;-49
2022/01/02 10:45:40;;;;;;;4.65;2.70;;;14.50;47.80;;;;;;5053862;28;20177;-50
2022/01/02 10:48:14;;;;;;;6.05;2.35;;;14.50;47.50;;;;;;5054511;28;20187;-49
2022/01/02 10:51:00;;;;;;;3.50;2.10;;;14.60;47.50;;;;;;5053678;28;20591;-50
2022/01/02 10:53:28;;;;;;;4.45;2.08;;;14.60;47.10;;;;;;5037706;28;20157;-49
2022/01/02 10:55:56;;;;;;;4.60;2.30;;;14.60;47.50;;;;;;5037451;28;20248;-50
2022/01/02 10:58:25;;;;;;;5.82;1.88;;;14.60;47.30;;;;;;5037661;28;20161;-49
2022/01/02 11:00:53;;;;;;;6.28;2.35;;;14.60;47.30;;;;;;5053771;28;20536;-50
2022/01/02 11:03:25;;;;;;;2.85;1.80;;;14.70;47.40;;;;;;5054393;28;20193;-49
2022/01/02 11:06:02;;;;;;;3.42;2.30;;;14.70;46.80;;;;;;5053566;28;20169;-50
2022/01/02 11:08:33;;;;;;;3.30;2.40;;;14.80;46.90;;;;;;5021368;28;20184;-49
2022/01/02 11:11:02;;;;;;;7.18;2.33;;;14.70;47.00;;;;;;5054419;28;20177;-49
2022/01/02 11:13:31;;;;;;;4.85;2.15;;;14.80;46.60;;;;;;5053664;28;20491;-49
2022/01/02 11:16:04;;;;;;;6.05;2.53;;;14.70;46.30;;;;;;5053768;28;20170;-49
2022/01/02 11:18:34;;;;;;;5.70;2.03;;;14.70;46.70;;;;;;5053665;28;20233;-49
2022/01/02 11:21:11;;;;;;;6.97;2.47;;;14.70;46.50;;;;;;5053531;28;20287;-49
2022/01/02 11:24:03;;;;;;;3.80;2.30;;;14.70;46.20;;;;;;5054425;28;20168;-49
2022/01/02 11:26:54;;;;;;;5.30;2.55;;;14.60;46.40;;;;;;5058094;28;20180;-49
2022/01/02 11:29:31;;;;;;;4.95;2.97;;;14.60;46.00;;;;;;5041252;28;20534;-49
2022/01/02 11:31:59;;;;;;;6.10;3.22;;;14.50;46.20;;;;;;5040835;28;20649;-49
2022/01/02 11:34:33;;;;;;;5.32;2.85;;;14.50;46.50;;;;;;5057062;28;20165;-50
2022/01/02 11:37:13;;;;;;;4.90;2.60;;;14.50;46.70;;;;;;5041378;28;20164;-49
2022/01/02 11:39:56;;;;;;;5.35;3.05;;;14.40;46.50;;;;;;5058309;28;20498;-47
2022/01/02 11:42:38;;;;;;;4.40;2.85;;;14.40;46.70;;;;;;5040570;28;20240;-48
2022/01/02 11:45:10;;;;;;;3.92;2.40;;;14.50;46.70;;;;;;5088457;28;20289;-48
2022/01/02 11:47:48;;;;;;;4.85;3.13;;;14.40;46.50;;;;;;5097115;28;20164;-49
2022/01/02 11:50:35;;;;;;;6.38;2.95;;;14.40;46.50;;;;;;5097885;28;20187;-48
2022/01/02 11:53:17;;;;;;;3.70;1.75;;;14.40;46.70;;;;;;5097907;28;20229;-49
2022/01/02 11:55:49;;;;;;;6.53;3.03;;;14.30;46.80;;;;;;5098221;28;20455;-49
2022/01/02 11:58:47;;;;;;;4.22;3.30;;;14.30;46.80;;;;;;5096827;28;20153;-48
2022/01/02 12:01:59;;;;;;;5.18;2.30;;;14.20;46.70;;;;;;5098003;28;20160;-48
2022/01/02 12:05:14;;;;;;;6.00;2.95;;;14.10;46.90;;;;;;5092643;28;20180;-48
2022/01/02 12:07:53;;;;;;;3.50;2.10;;;14.20;46.90;;;;;;5097871;28;20217;-48
2022/01/02 12:10:24;;;;;;;5.18;3.35;;;14.10;47.10;;;;;;5096443;28;20290;-48
2022/01/02 12:13:10;;;;;;;6.65;2.45;;;14.10;46.90;;;;;;5097419;28;20598;-47
2022/01/02 12:15:41;;;;;;;7.80;3.03;;;14.10;47.10;;;;;;5097616;28;20175;-48
2022/01/02 12:18:16;;;;;;;5.47;2.53;;;14.20;46.90;;;;;;5097594;28;20156;-48
2022/01/02 12:20:53;;;;;;;5.20;2.38;;;14.20;46.90;;;;;;5097563;28;20174;-48
2022/01/02 12:23:33;;;;;;;5.25;3.03;;;14.20;47.00;;;;;;5096296;28;20171;-47
2022/01/02 12:26:07;;;;;;;4.97;2.85;;;14.20;46.80;;;;;;5097164;28;20172;-47
2022/01/02 12:28:57;;;;;;;6.43;2.55;;;14.20;46.90;;;;;;5096371;28;20187;-48
2022/01/02 12:31:43;;;;;;;5.30;2.70;;;14.20;46.80;;;;;;5097260;28;20674;-47
2022/01/02 12:34:20;;;;;;;4.15;2.08;;;14.10;46.70;;;;;;5096826;28;20174;-48
2022/01/02 12:36:49;;;;;;;5.88;2.53;;;14.10;46.70;;;;;;5096407;28;20226;-47
2022/01/02 12:39:28;;;;;;;2.85;2.28;;;14.00;46.70;;;;;;5096080;28;20164;-48
2022/01/02 12:42:02;;;;;;;5.05;3.00;;;14.00;46.90;;;;;;5096115;28;20633;-48
2022/01/02 12:44:32;;;;;;;4.38;2.65;;;13.90;47.40;;;;;;5095953;28;20215;-48
2022/01/02 12:47:03;;;;;;;6.55;1.85;;;13.80;47.20;;;;;;5095960;28;20199;-48
2022/01/02 12:49:39;;;;;;;4.57;2.90;;;13.80;47.10;;;;;;5096141;28;20180;-48
2022/01/02 12:52:12;;;;;;;6.53;2.40;;;13.90;47.50;;;;;;5079421;28;20172;-49
2022/01/02 12:54:42;;;;;;;5.65;2.70;;;14.00;47.30;;;;;;5096007;28;20160;-49
2022/01/02 12:57:13;;;;;;;4.15;2.92;;;14.10;46.90;;;;;;5096804;28;20532;-49
2022/01/02 12:59:42;;;;;;;5.38;2.92;;;14.20;46.90;;;;;;5079834;28;20588;-49
2022/01/02 13:02:12;;;;;;;7.05;4.18;;;14.20;46.50;;;;;;5095926;28;20183;-48
2022/01/02 13:04:41;;;;;;;4.95;2.42;;;14.20;46.50;;;;;;5079153;28;20164;-49
2022/01/02 13:07:23;;;;;;;7.68;3.25;;;14.30;46.50;;;;;;5095533;28;20281;-49
2022/01/02 13:09:56;;;;;;;6.65;2.90;;;14.30;46.60;;;;;;5095665;28;20176;-50
2022/01/02 13:12:29;;;;;;;6.07;3.40;;;14.30;46.70;;;;;;5096581;28;20156;-48